Weather at Xiangyang Liuji Airport

Public forecast

Using degrees Celsius for public forecast. Weather courtesy of forecast.io.

Closest aviation weather report (METAR) to Xiangyang Liuji Airport

Closest report is Wuhan Tianhe International Airport, 128.6 nm (238.1 km) SE.

2022/12/03 15:00 (retrieved 36 minutes ago)

ZHHH 031500Z 01002MPS 310V050 8000 OVC040 07/M01 Q1028 NOSIG

Closest aviation forecast (TAF) to Xiangyang Liuji Airport

Closest forecast is Taiwan Taoyuan International Airport, 633.9 nm (1,174.1 km) SE.

2022/12/03 12:00 (retrieved 4 hours ago)

TAF VMMC 031100Z 0312/0418 36015KT 9999 FEW020 SCT040 TAF RCTP 031100Z 0312/0418 05015KT 9999 FEW006 BKN011 TEMPO 0312/0318 04010KT FEW004 BKN006 BECMG 0318/0320 05020KT FEW002 BKN004 TEMPO 0404/0410 5000 RA FEW006 BKN011 TEMPO 0410/0415 05025KT FEW006 BKN007 BECMG 0415/0417 FEW006 BKN011